Heathsville, Illinois
Current Conditions -  °F | °C
As of 11:55 AM on Tuesday 21 Oct 2014 (Local Time) from KRSV Reporting Station
Broken Clouds Broken Clouds  
Wind Chill: 61°   Ceiling: 3900
Heat Index: 61°   Visibility: 10mi
Dew Point: 44°   Wind: 9mph
Humidity: 53%   Direction: 30°NNE
Pressure: 30.13"   Gusts: NA
Location:  38.904°N, 87.665°W
Report Text: KRSV 211655Z AUTO 03008KT 10SM BKN039 BKN047 16/07 A3013 RMK AO2 T01620065
Loading
Personal Weather Stations






























Interactive Weather Map New forecast layout! Learn more

10-Day Weather Forecast

Advertisements
Track Severe Weather on mobile